createdAt,value
2017-07-28T00:00:10.927Z,10.70
2017-07-28T00:02:42.197Z,10.60
2017-07-28T00:05:10.500Z,10.70
2017-07-28T00:07:38.977Z,10.60
2017-07-28T00:10:07.280Z,10.50
2017-07-28T00:12:35.585Z,10.50
2017-07-28T00:15:03.937Z,10.50
2017-07-28T00:17:32.241Z,10.40
2017-07-28T00:20:00.600Z,10.30
2017-07-28T00:22:28.980Z,10.30
2017-07-28T00:24:57.315Z,10.10
2017-07-28T00:27:25.615Z,10.10
2017-07-28T00:32:33.637Z,10.00
2017-07-28T00:35:03.235Z,9.90
2017-07-28T00:37:31.529Z,9.90
2017-07-28T00:39:59.919Z,9.90
2017-07-28T00:42:28.264Z,9.80
2017-07-28T00:44:56.548Z,9.70
2017-07-28T00:47:24.896Z,9.70
2017-07-28T00:49:53.197Z,9.60
2017-07-28T00:52:21.523Z,9.60
2017-07-28T00:54:49.866Z,9.60
2017-07-28T00:57:18.148Z,9.50
2017-07-28T00:59:46.488Z,9.50
2017-07-28T01:02:14.828Z,9.40
2017-07-28T01:04:43.170Z,9.50
2017-07-28T01:07:11.499Z,9.40
2017-07-28T01:09:41.983Z,9.40
2017-07-28T01:12:10.285Z,9.30
2017-07-28T01:14:38.629Z,9.30
2017-07-28T01:17:06.966Z,9.30
2017-07-28T01:19:35.256Z,9.40
2017-07-28T01:22:03.688Z,9.50
2017-07-28T01:24:31.974Z,9.50
2017-07-28T01:27:00.268Z,9.50
2017-07-28T01:29:28.607Z,9.60
2017-07-28T01:31:56.900Z,9.60
2017-07-28T01:34:25.235Z,9.60
2017-07-28T01:36:53.535Z,9.60
2017-07-28T01:39:21.821Z,9.60
2017-07-28T01:41:50.147Z,9.70
2017-07-28T01:44:18.551Z,9.60
2017-07-28T01:46:47.822Z,9.60
2017-07-28T01:49:16.150Z,9.70
2017-07-28T01:51:44.534Z,9.70
2017-07-28T01:54:12.824Z,9.70
2017-07-28T01:56:41.313Z,9.70
2017-07-28T01:59:09.608Z,9.70
2017-07-28T02:01:38.059Z,9.70
2017-07-28T02:04:06.402Z,9.80
2017-07-28T02:06:35.707Z,9.80
2017-07-28T02:09:04.032Z,9.80
2017-07-28T02:11:32.392Z,9.80
2017-07-28T02:14:01.531Z,9.70
2017-07-28T02:16:29.886Z,9.70
2017-07-28T02:18:58.182Z,9.70
2017-07-28T02:21:26.501Z,9.80
2017-07-28T02:23:54.849Z,9.80
2017-07-28T02:26:23.340Z,9.90
2017-07-28T02:28:51.724Z,9.90
2017-07-28T02:31:20.119Z,9.90
2017-07-28T02:33:48.519Z,10.00
2017-07-28T02:36:22.693Z,10.00
2017-07-28T02:38:51.033Z,10.30
2017-07-28T02:41:19.417Z,10.40
2017-07-28T02:43:47.896Z,10.60
2017-07-28T02:46:16.204Z,10.90
2017-07-28T02:48:44.598Z,11.10
2017-07-28T02:51:13.707Z,11.50
2017-07-28T02:53:42.012Z,11.50
2017-07-28T02:56:11.304Z,11.70
2017-07-28T02:58:39.695Z,11.70
2017-07-28T03:01:07.991Z,11.90
2017-07-28T03:03:37.107Z,12.00
2017-07-28T03:06:06.175Z,11.80
2017-07-28T03:08:35.908Z,11.80
2017-07-28T03:11:04.204Z,11.80
2017-07-28T03:13:32.539Z,11.70
2017-07-28T03:16:00.875Z,11.60
2017-07-28T03:18:29.284Z,11.60
2017-07-28T03:20:57.624Z,11.60
2017-07-28T03:23:25.923Z,11.60
2017-07-28T03:25:54.388Z,11.60
2017-07-28T03:28:22.684Z,11.60
2017-07-28T03:30:51.045Z,11.80
2017-07-28T03:33:19.423Z,11.80
2017-07-28T03:35:47.732Z,11.80
2017-07-28T03:38:16.946Z,11.70
2017-07-28T03:40:46.004Z,11.60
2017-07-28T03:43:14.315Z,11.60
2017-07-28T03:45:43.631Z,11.50
2017-07-28T03:48:11.936Z,11.50
2017-07-28T03:50:41.136Z,11.40
2017-07-28T03:53:09.617Z,11.40
2017-07-28T03:55:37.916Z,11.30
2017-07-28T03:58:06.221Z,11.30
2017-07-28T04:00:35.512Z,11.20
2017-07-28T04:03:03.809Z,11.20
2017-07-28T04:05:32.128Z,11.20
2017-07-28T04:08:00.483Z,11.20
2017-07-28T04:10:28.836Z,11.20
2017-07-28T04:12:57.132Z,11.20
2017-07-28T04:15:25.467Z,11.20
2017-07-28T04:17:54.564Z,11.20
2017-07-28T04:20:23.191Z,11.10
2017-07-28T04:22:51.524Z,11.10
2017-07-28T04:25:19.872Z,11.10
2017-07-28T04:27:48.614Z,11.10
2017-07-28T04:30:16.970Z,11.10
2017-07-28T04:32:45.314Z,11.10
2017-07-28T04:35:13.709Z,11.10
2017-07-28T04:37:42.197Z,11.10
2017-07-28T04:40:10.487Z,11.20
2017-07-28T04:42:38.788Z,11.10
2017-07-28T04:45:07.892Z,11.10
2017-07-28T04:47:36.996Z,11.10
2017-07-28T04:50:05.337Z,11.00
2017-07-28T04:52:33.679Z,11.10
2017-07-28T04:55:02.750Z,11.20
2017-07-28T04:57:31.068Z,11.10
2017-07-28T04:59:59.460Z,11.20
2017-07-28T05:02:27.861Z,11.20
2017-07-28T05:04:56.963Z,11.40
2017-07-28T05:07:25.257Z,11.40
2017-07-28T05:09:54.555Z,11.30
2017-07-28T05:12:22.855Z,11.30
2017-07-28T05:14:51.160Z,11.40
2017-07-28T05:17:19.496Z,11.40
2017-07-28T05:19:47.840Z,11.40
2017-07-28T05:22:16.919Z,11.50
2017-07-28T05:24:45.219Z,11.50
2017-07-28T05:27:14.326Z,11.60
2017-07-28T05:29:42.623Z,11.60
2017-07-28T05:32:11.719Z,11.60
2017-07-28T05:34:40.011Z,11.60
2017-07-28T05:37:11.592Z,11.70
2017-07-28T05:39:39.927Z,11.70
2017-07-28T05:42:08.878Z,11.70
2017-07-28T05:44:37.945Z,11.80
2017-07-28T05:47:06.347Z,11.80
2017-07-28T05:49:34.651Z,11.80
2017-07-28T05:52:02.997Z,11.80
2017-07-28T05:54:31.620Z,11.90
2017-07-28T05:57:00.091Z,11.90
2017-07-28T05:59:28.385Z,11.90
2017-07-28T06:01:56.681Z,11.90
2017-07-28T06:04:25.008Z,11.90
2017-07-28T06:06:53.354Z,12.00
2017-07-28T06:09:21.662Z,12.10
2017-07-28T06:11:50.009Z,12.10
2017-07-28T06:14:18.299Z,12.10
2017-07-28T06:16:46.624Z,12.00
2017-07-28T06:19:15.640Z,12.00
2017-07-28T06:21:44.047Z,12.00
2017-07-28T06:24:12.391Z,12.10
2017-07-28T06:26:40.692Z,12.10
2017-07-28T06:29:09.016Z,12.10
2017-07-28T06:31:37.312Z,12.20
2017-07-28T06:34:06.154Z,12.30
2017-07-28T06:36:34.451Z,12.30
2017-07-28T06:39:02.823Z,12.40
2017-07-28T06:41:31.263Z,12.40
2017-07-28T06:43:59.552Z,12.50
2017-07-28T06:46:27.841Z,12.50
2017-07-28T06:48:56.655Z,12.50
2017-07-28T06:51:24.991Z,12.60
2017-07-28T06:53:55.941Z,12.60
2017-07-28T06:56:24.241Z,12.50
2017-07-28T06:58:52.540Z,12.60
2017-07-28T07:01:20.885Z,12.80
2017-07-28T07:03:49.321Z,13.00
2017-07-28T07:06:18.104Z,13.00
2017-07-28T07:08:46.400Z,13.10
2017-07-28T07:11:14.747Z,13.00
2017-07-28T07:13:43.028Z,13.00
2017-07-28T07:16:11.532Z,13.10
2017-07-28T07:18:39.833Z,13.30
2017-07-28T07:21:08.140Z,13.50
2017-07-28T07:23:36.613Z,13.50
2017-07-28T07:26:04.908Z,13.50
2017-07-28T07:28:33.208Z,13.50
2017-07-28T07:31:01.548Z,13.90
2017-07-28T07:33:29.843Z,14.00
2017-07-28T07:35:58.195Z,13.90
2017-07-28T07:38:26.483Z,14.00
2017-07-28T07:40:54.816Z,14.40
2017-07-28T07:43:23.104Z,14.20
2017-07-28T07:45:51.783Z,14.40
2017-07-28T07:48:20.119Z,14.30
2017-07-28T07:50:49.161Z,14.30
2017-07-28T07:53:17.453Z,14.40
2017-07-28T07:55:45.793Z,14.20
2017-07-28T07:58:14.152Z,14.40
2017-07-28T08:00:42.446Z,14.70
2017-07-28T08:03:10.747Z,15.10
2017-07-28T08:05:39.044Z,14.80
2017-07-28T08:08:07.346Z,14.40
2017-07-28T08:10:35.662Z,14.50
2017-07-28T08:13:03.993Z,14.40
2017-07-28T08:15:32.283Z,14.20
2017-07-28T08:18:00.628Z,14.10
2017-07-28T08:20:28.920Z,14.10
2017-07-28T08:22:57.221Z,14.20
2017-07-28T08:25:25.513Z,14.30
2017-07-28T08:27:53.805Z,14.20
2017-07-28T08:30:22.239Z,14.20
2017-07-28T08:32:50.777Z,14.30
2017-07-28T08:35:19.118Z,14.60
2017-07-28T08:37:47.407Z,14.60
2017-07-28T08:40:15.700Z,14.50
2017-07-28T08:42:44.045Z,14.50
2017-07-28T08:45:12.330Z,14.60
2017-07-28T08:47:40.631Z,14.60
2017-07-28T08:50:09.489Z,14.50
2017-07-28T08:52:37.800Z,14.20
2017-07-28T08:55:06.107Z,14.40
2017-07-28T08:57:34.567Z,14.30
2017-07-28T09:00:02.868Z,14.40
2017-07-28T09:02:31.195Z,14.30
2017-07-28T09:05:02.688Z,14.50
2017-07-28T09:07:31.116Z,14.90
2017-07-28T09:09:59.403Z,15.40
2017-07-28T09:12:27.700Z,15.70
2017-07-28T09:14:55.992Z,16.10
2017-07-28T09:17:25.331Z,16.00
2017-07-28T09:19:53.660Z,16.00
2017-07-28T09:22:21.961Z,15.90
2017-07-28T09:24:50.287Z,15.20
2017-07-28T09:27:18.618Z,15.50
2017-07-28T09:29:46.976Z,15.50
2017-07-28T09:32:15.267Z,15.90
2017-07-28T09:34:43.604Z,16.00
2017-07-28T09:37:11.883Z,16.60
2017-07-28T09:39:40.243Z,16.60
2017-07-28T09:42:08.537Z,16.40
2017-07-28T09:44:36.835Z,16.20
2017-07-28T09:47:05.122Z,16.50
2017-07-28T09:49:33.413Z,16.50
2017-07-28T09:52:01.744Z,16.80
2017-07-28T09:54:30.039Z,16.70
2017-07-28T09:56:58.368Z,16.80
2017-07-28T09:59:26.712Z,16.70
2017-07-28T10:01:55.092Z,17.10
2017-07-28T10:04:23.375Z,17.50
2017-07-28T10:06:51.676Z,17.20
2017-07-28T10:09:19.972Z,17.10
2017-07-28T10:11:48.304Z,16.60
2017-07-28T10:14:16.636Z,16.70
2017-07-28T10:16:44.997Z,16.50
2017-07-28T10:19:13.292Z,16.60
2017-07-28T10:21:41.586Z,16.60
2017-07-28T10:24:09.883Z,16.60
2017-07-28T10:26:38.220Z,17.00
2017-07-28T10:29:06.507Z,17.20
2017-07-28T10:31:34.807Z,17.20
2017-07-28T10:34:06.787Z,17.10
2017-07-28T10:36:35.646Z,17.50
2017-07-28T10:39:03.952Z,17.70
2017-07-28T10:41:32.293Z,17.40
2017-07-28T10:44:00.587Z,17.40
2017-07-28T10:46:29.872Z,17.80
2017-07-28T10:48:58.160Z,17.80
2017-07-28T10:51:26.480Z,17.80
2017-07-28T10:53:54.790Z,18.20
2017-07-28T10:56:23.135Z,18.50
2017-07-28T10:58:51.445Z,18.50
2017-07-28T11:01:19.753Z,18.60
2017-07-28T11:03:48.197Z,18.40
2017-07-28T11:06:16.499Z,18.20
2017-07-28T11:08:45.832Z,17.90
2017-07-28T11:11:14.137Z,18.20
2017-07-28T11:13:42.564Z,18.10
2017-07-28T11:16:10.937Z,18.40
2017-07-28T11:18:39.276Z,18.10
2017-07-28T11:21:07.607Z,18.10
2017-07-28T11:23:35.907Z,17.90
2017-07-28T11:26:04.240Z,18.00
2017-07-28T11:28:32.538Z,18.10
2017-07-28T11:31:00.914Z,18.50
2017-07-28T11:33:29.319Z,18.00
2017-07-28T11:35:57.618Z,17.90
2017-07-28T11:38:25.953Z,17.90
2017-07-28T11:40:54.241Z,18.20
2017-07-28T11:43:22.533Z,18.50
2017-07-28T11:45:50.835Z,18.50
2017-07-28T11:48:19.215Z,18.00
2017-07-28T11:50:51.188Z,18.20
2017-07-28T11:53:19.502Z,18.20
2017-07-28T11:55:47.823Z,17.90
2017-07-28T11:58:16.115Z,18.10
2017-07-28T12:00:44.406Z,18.30
2017-07-28T12:03:12.691Z,18.70
2017-07-28T12:05:41.040Z,19.10
2017-07-28T12:08:09.415Z,19.60
2017-07-28T12:10:37.710Z,20.60
2017-07-28T12:13:06.135Z,21.50
2017-07-28T12:15:34.659Z,20.90
2017-07-28T12:18:04.153Z,19.10
2017-07-28T12:20:32.448Z,19.00
2017-07-28T12:23:01.818Z,18.70
2017-07-28T12:25:30.271Z,18.60
2017-07-28T12:27:58.569Z,18.10
2017-07-28T12:30:26.937Z,18.40
2017-07-28T12:32:55.252Z,18.40
2017-07-28T12:35:23.559Z,18.40
2017-07-28T12:37:52.131Z,19.00
2017-07-28T12:40:20.424Z,19.50
2017-07-28T12:42:49.237Z,19.80
2017-07-28T12:45:17.582Z,19.60
2017-07-28T12:47:46.017Z,19.30
2017-07-28T12:50:14.308Z,19.40
2017-07-28T12:52:42.604Z,18.90
2017-07-28T12:55:10.902Z,19.60
2017-07-28T12:57:39.205Z,20.30
2017-07-28T13:00:07.562Z,20.40
2017-07-28T13:02:35.859Z,20.30
2017-07-28T13:05:04.159Z,21.10
2017-07-28T13:07:32.612Z,21.20
2017-07-28T13:10:00.913Z,21.10
2017-07-28T13:12:29.224Z,20.70
2017-07-28T13:14:57.525Z,20.90
2017-07-28T13:17:25.868Z,19.90
2017-07-28T13:19:54.207Z,20.40
2017-07-28T13:22:22.590Z,20.90
2017-07-28T13:24:50.928Z,20.90
2017-07-28T13:27:19.237Z,20.50
2017-07-28T13:29:47.531Z,20.10
2017-07-28T13:32:15.830Z,20.20
2017-07-28T13:34:44.125Z,20.00
2017-07-28T13:37:12.460Z,19.80
2017-07-28T13:39:40.797Z,19.70
2017-07-28T13:42:09.089Z,19.00
2017-07-28T13:44:37.381Z,19.20
2017-07-28T13:47:05.685Z,19.20
2017-07-28T13:49:34.006Z,18.60
2017-07-28T13:52:02.349Z,18.50
2017-07-28T13:54:30.644Z,18.40
2017-07-28T13:56:58.945Z,18.00
2017-07-28T13:59:27.277Z,18.20
2017-07-28T14:01:55.570Z,18.60
2017-07-28T14:04:23.935Z,18.60
2017-07-28T14:06:52.264Z,18.50
2017-07-28T14:09:20.592Z,18.90
2017-07-28T14:11:48.886Z,19.20
2017-07-28T14:14:17.188Z,19.90
2017-07-28T14:16:45.489Z,19.50
2017-07-28T14:19:13.795Z,19.00
2017-07-28T14:21:42.097Z,18.80
2017-07-28T14:24:10.553Z,18.90
2017-07-28T14:26:39.081Z,19.10
2017-07-28T14:29:07.377Z,18.80
2017-07-28T14:31:35.676Z,18.70
2017-07-28T14:34:03.970Z,18.60
2017-07-28T14:36:32.272Z,18.30
2017-07-28T14:39:00.572Z,17.90
2017-07-28T14:41:28.872Z,17.90
2017-07-28T14:43:57.242Z,17.70
2017-07-28T14:46:25.545Z,17.50
2017-07-28T14:48:54.633Z,17.50
2017-07-28T14:51:22.928Z,17.30
2017-07-28T14:53:51.236Z,17.20
2017-07-28T14:56:20.484Z,17.00
2017-07-28T14:58:48.789Z,16.90
2017-07-28T15:01:17.109Z,16.80
2017-07-28T15:03:45.649Z,16.90
2017-07-28T15:06:13.986Z,17.40
2017-07-28T15:08:42.285Z,17.60
2017-07-28T15:11:10.580Z,17.70
2017-07-28T15:13:38.904Z,18.10
2017-07-28T15:16:07.222Z,18.20
2017-07-28T15:18:35.565Z,17.90
2017-07-28T15:21:03.933Z,17.90
2017-07-28T15:23:32.236Z,17.80
2017-07-28T15:26:00.569Z,17.90
2017-07-28T15:28:28.869Z,17.60
2017-07-28T15:30:58.815Z,17.60
2017-07-28T15:33:27.182Z,17.90
2017-07-28T15:35:55.658Z,18.10
2017-07-28T15:38:24.052Z,17.90
2017-07-28T15:40:52.355Z,18.00
2017-07-28T15:43:20.655Z,18.10
2017-07-28T15:45:49.085Z,17.80
2017-07-28T15:48:17.510Z,18.00
2017-07-28T15:50:45.802Z,18.00
2017-07-28T15:53:14.154Z,18.00
2017-07-28T15:55:42.461Z,17.70
2017-07-28T15:58:10.770Z,17.60
2017-07-28T16:00:39.058Z,17.60
2017-07-28T16:03:07.846Z,17.30
2017-07-28T16:05:37.948Z,17.30
2017-07-28T16:08:06.241Z,17.10
2017-07-28T16:10:34.601Z,16.90
2017-07-28T16:13:02.901Z,17.00
2017-07-28T16:15:31.201Z,17.10
2017-07-28T16:17:59.513Z,17.40
2017-07-28T16:20:27.825Z,18.00
2017-07-28T16:22:56.350Z,18.10
2017-07-28T16:25:24.646Z,17.90
2017-07-28T16:27:52.947Z,17.80
2017-07-28T16:30:21.249Z,17.70
2017-07-28T16:32:49.571Z,17.70
2017-07-28T16:35:17.877Z,17.90
2017-07-28T16:37:46.387Z,17.80
2017-07-28T16:40:14.680Z,17.80
2017-07-28T16:42:42.991Z,17.60
2017-07-28T16:45:11.297Z,17.50
2017-07-28T16:47:39.599Z,17.30
2017-07-28T16:50:07.896Z,17.10
2017-07-28T16:52:36.205Z,17.20
2017-07-28T16:55:04.553Z,17.30
2017-07-28T16:57:32.887Z,17.20
2017-07-28T17:00:02.941Z,17.40
2017-07-28T17:02:32.063Z,17.30
2017-07-28T17:05:00.365Z,17.20
2017-07-28T17:07:28.703Z,17.30
2017-07-28T17:09:56.992Z,17.30
2017-07-28T17:12:25.293Z,17.20
2017-07-28T17:14:53.588Z,17.20
2017-07-28T17:17:21.889Z,17.20
2017-07-28T17:19:50.251Z,17.40
2017-07-28T17:22:18.548Z,17.40
2017-07-28T17:24:46.856Z,17.40
2017-07-28T17:27:15.165Z,17.20
2017-07-28T17:29:43.465Z,17.30
2017-07-28T17:32:11.918Z,17.20
2017-07-28T17:34:40.225Z,17.00
2017-07-28T17:37:08.526Z,16.90
2017-07-28T17:39:36.829Z,16.90
2017-07-28T17:42:05.141Z,17.10
2017-07-28T17:44:33.440Z,17.00
2017-07-28T17:47:01.753Z,16.90
2017-07-28T17:49:30.101Z,16.80
2017-07-28T17:51:58.409Z,16.70
2017-07-28T17:54:26.746Z,16.60
2017-07-28T17:56:55.131Z,16.50
2017-07-28T17:59:23.493Z,16.40
2017-07-28T18:01:51.778Z,16.40
2017-07-28T18:04:20.116Z,16.40
2017-07-28T18:06:48.461Z,16.40
2017-07-28T18:09:16.804Z,16.40
2017-07-28T18:14:20.144Z,16.40
2017-07-28T18:16:48.543Z,16.30
2017-07-28T18:19:16.892Z,16.20
2017-07-28T18:21:45.178Z,16.20
2017-07-28T18:24:13.607Z,16.10
2017-07-28T18:26:41.910Z,16.10
2017-07-28T18:29:10.200Z,16.00
2017-07-28T18:31:38.507Z,16.00
2017-07-28T18:34:06.800Z,16.00
2017-07-28T18:36:35.162Z,16.00
2017-07-28T18:39:03.452Z,15.90
2017-07-28T18:41:31.796Z,15.90
2017-07-28T18:44:00.098Z,15.90
2017-07-28T18:46:28.400Z,15.90
2017-07-28T18:48:56.758Z,15.90
2017-07-28T18:51:25.138Z,15.90
2017-07-28T18:53:53.438Z,15.80
2017-07-28T18:56:21.734Z,15.80
2017-07-28T18:58:50.030Z,15.90
2017-07-28T19:01:18.368Z,15.80
2017-07-28T19:03:46.691Z,15.80
2017-07-28T19:06:15.025Z,15.80
2017-07-28T19:08:43.377Z,15.70
2017-07-28T19:11:11.676Z,15.70
2017-07-28T19:13:39.988Z,15.70
2017-07-28T19:16:10.163Z,15.70
2017-07-28T19:18:38.508Z,15.70
2017-07-28T19:21:06.865Z,15.60
2017-07-28T19:23:35.159Z,15.60
2017-07-28T19:26:04.875Z,15.60
2017-07-28T19:28:38.142Z,15.60
2017-07-28T19:31:06.510Z,15.60
2017-07-28T19:33:34.804Z,15.50
2017-07-28T19:36:03.164Z,15.40
2017-07-28T19:38:31.504Z,15.40
2017-07-28T19:40:59.840Z,15.40
2017-07-28T19:43:28.493Z,15.30
2017-07-28T19:45:56.824Z,15.20
2017-07-28T19:48:25.121Z,15.20
2017-07-28T19:50:53.437Z,15.20
2017-07-28T19:53:21.732Z,15.30
2017-07-28T19:55:50.071Z,15.20
2017-07-28T19:58:18.787Z,15.20
2017-07-28T20:00:47.202Z,15.10
2017-07-28T20:03:15.558Z,15.10
2017-07-28T20:08:43.789Z,15.20
2017-07-28T20:11:12.849Z,15.10
2017-07-28T20:13:41.690Z,15.10
2017-07-28T20:19:07.818Z,15.20
2017-07-28T20:21:36.200Z,15.20
2017-07-28T20:24:04.501Z,15.20
2017-07-28T20:26:32.809Z,15.20
2017-07-28T20:29:01.133Z,15.20
2017-07-28T20:31:29.972Z,15.20
2017-07-28T20:33:58.292Z,15.20
2017-07-28T20:36:26.630Z,15.20
2017-07-28T20:38:54.933Z,15.10
2017-07-28T20:41:23.316Z,15.10
2017-07-28T20:43:51.636Z,15.00
2017-07-28T20:46:20.106Z,15.00
2017-07-28T20:48:48.450Z,14.90
2017-07-28T20:51:16.856Z,14.90
2017-07-28T20:53:45.164Z,15.00
2017-07-28T20:56:13.516Z,15.00
2017-07-28T20:58:41.870Z,15.00
2017-07-28T21:01:10.350Z,15.00
2017-07-28T21:03:38.797Z,15.10
2017-07-28T21:06:07.139Z,15.00
2017-07-28T21:08:35.439Z,15.10
2017-07-28T21:11:03.781Z,15.10
2017-07-28T21:13:43.869Z,15.20
2017-07-28T21:16:12.177Z,15.10
2017-07-28T21:18:40.471Z,15.10
2017-07-28T21:21:08.820Z,15.10
2017-07-28T21:23:37.119Z,15.00
2017-07-28T21:26:05.416Z,14.90
2017-07-28T21:28:33.714Z,14.80
2017-07-28T21:31:02.045Z,14.70
2017-07-28T21:33:30.347Z,14.70
2017-07-28T21:35:58.640Z,14.60
2017-07-28T21:38:26.956Z,14.60
2017-07-28T21:40:55.258Z,14.60
2017-07-28T21:43:23.553Z,14.50
2017-07-28T21:45:51.953Z,14.50
2017-07-28T21:48:20.244Z,14.40
2017-07-28T21:50:48.546Z,14.30
2017-07-28T21:53:16.850Z,14.30
2017-07-28T21:55:45.214Z,14.30
2017-07-28T21:58:13.611Z,14.30
2017-07-28T22:00:41.932Z,14.20
2017-07-28T22:03:11.118Z,14.20
2017-07-28T22:05:39.415Z,14.20
2017-07-28T22:08:07.706Z,14.10
2017-07-28T22:10:36.006Z,14.30
2017-07-28T22:13:04.308Z,14.20
2017-07-28T22:15:32.645Z,14.10
2017-07-28T22:18:01.000Z,13.90
2017-07-28T22:20:33.937Z,14.00
2017-07-28T22:23:02.241Z,13.90
2017-07-28T22:25:31.360Z,13.90
2017-07-28T22:27:59.668Z,13.90
2017-07-28T22:30:28.986Z,13.90
2017-07-28T22:32:57.572Z,13.80
2017-07-28T22:35:25.880Z,13.90
2017-07-28T22:37:54.235Z,13.80
2017-07-28T22:40:22.545Z,13.70
2017-07-28T22:42:50.841Z,13.70
2017-07-28T22:45:19.183Z,13.70
2017-07-28T22:47:47.493Z,13.60
2017-07-28T22:50:15.790Z,13.60
2017-07-28T22:52:44.090Z,13.60
2017-07-28T22:55:12.391Z,13.50
2017-07-28T22:57:40.690Z,13.50
2017-07-28T23:00:09.029Z,13.50
2017-07-28T23:02:37.345Z,13.40
2017-07-28T23:05:05.661Z,13.40
2017-07-28T23:07:33.964Z,13.30
2017-07-28T23:10:02.294Z,13.30
2017-07-28T23:12:30.601Z,13.40
2017-07-28T23:14:58.913Z,13.40
2017-07-28T23:17:27.282Z,13.40
2017-07-28T23:19:55.568Z,13.40
2017-07-28T23:22:24.656Z,13.40
2017-07-28T23:24:52.950Z,13.40
2017-07-28T23:27:22.701Z,13.40
2017-07-28T23:29:51.004Z,13.40
2017-07-28T23:32:22.562Z,13.40
2017-07-28T23:34:50.858Z,13.40
2017-07-28T23:37:19.164Z,13.40
2017-07-28T23:39:47.484Z,13.40
2017-07-28T23:42:16.032Z,13.30
2017-07-28T23:44:45.093Z,13.30
2017-07-28T23:47:13.401Z,13.30
2017-07-28T23:49:41.750Z,13.20
2017-07-28T23:52:10.067Z,13.10
2017-07-28T23:54:38.364Z,13.20
2017-07-28T23:57:06.681Z,13.20
2017-07-28T23:59:35.747Z,13.20
